sensor_id;sensor_type;location;lat;lon;timestamp;temperature;humidity
2260;DHT22;333;48.800;9.530;2023-09-19T00:00:25;17.70;99.60
2260;DHT22;333;48.800;9.530;2023-09-19T00:02:54;17.70;99.60
2260;DHT22;333;48.800;9.530;2023-09-19T00:05:22;17.60;99.60
2260;DHT22;333;48.800;9.530;2023-09-19T00:07:53;17.60;99.60
2260;DHT22;333;48.800;9.530;2023-09-19T00:10:20;17.60;99.60
2260;DHT22;333;48.800;9.530;2023-09-19T00:12:50;17.50;99.60
2260;DHT22;333;48.800;9.530;2023-09-19T00:15:18;17.60;99.60
2260;DHT22;333;48.800;9.530;2023-09-19T00:17:45;17.60;99.60
2260;DHT22;333;48.800;9.530;2023-09-19T00:20:14;17.50;99.60
2260;DHT22;333;48.800;9.530;2023-09-19T00:22:43;17.50;99.60
2260;DHT22;333;48.800;9.530;2023-09-19T00:25:10;17.40;99.60
2260;DHT22;333;48.800;9.530;2023-09-19T00:27:38;17.50;99.60
2260;DHT22;333;48.800;9.530;2023-09-19T00:30:09;17.50;99.60
2260;DHT22;333;48.800;9.530;2023-09-19T00:32:40;17.50;99.60
2260;DHT22;333;48.800;9.530;2023-09-19T00:35:07;17.40;99.60
2260;DHT22;333;48.800;9.530;2023-09-19T00:37:37;17.50;99.60
2260;DHT22;333;48.800;9.530;2023-09-19T00:40:06;17.50;99.60
2260;DHT22;333;48.800;9.530;2023-09-19T00:42:37;17.50;99.60
2260;DHT22;333;48.800;9.530;2023-09-19T00:45:05;17.50;99.60
2260;DHT22;333;48.800;9.530;2023-09-19T00:47:32;17.50;99.60
2260;DHT22;333;48.800;9.530;2023-09-19T00:49:59;17.50;99.60
2260;DHT22;333;48.800;9.530;2023-09-19T00:52:27;17.40;99.60
2260;DHT22;333;48.800;9.530;2023-09-19T00:54:55;17.40;99.60
2260;DHT22;333;48.800;9.530;2023-09-19T00:57:22;17.50;99.60
2260;DHT22;333;48.800;9.530;2023-09-19T00:59:52;17.40;99.60
2260;DHT22;333;48.800;9.530;2023-09-19T01:02:21;17.40;99.60
2260;DHT22;333;48.800;9.530;2023-09-19T01:04:48;17.40;99.60
2260;DHT22;333;48.800;9.530;2023-09-19T01:07:15;17.40;99.60
2260;DHT22;333;48.800;9.530;2023-09-19T01:09:43;17.30;99.60
2260;DHT22;333;48.800;9.530;2023-09-19T01:12:14;17.40;99.60
2260;DHT22;333;48.800;9.530;2023-09-19T01:14:49;17.30;99.60
2260;DHT22;333;48.800;9.530;2023-09-19T01:17:27;17.40;99.60
2260;DHT22;333;48.800;9.530;2023-09-19T01:20:15;17.40;99.60
2260;DHT22;333;48.800;9.530;2023-09-19T01:22:53;17.40;99.60
2260;DHT22;333;48.800;9.530;2023-09-19T01:28:33;17.50;99.60
2260;DHT22;333;48.800;9.530;2023-09-19T01:31:09;17.70;99.60
2260;DHT22;333;48.800;9.530;2023-09-19T01:33:56;17.80;99.60
2260;DHT22;333;48.800;9.530;2023-09-19T01:36:25;17.80;99.60
2260;DHT22;333;48.800;9.530;2023-09-19T01:38:53;17.80;99.60
2260;DHT22;333;48.800;9.530;2023-09-19T01:41:26;17.80;99.60
2260;DHT22;333;48.800;9.530;2023-09-19T01:43:53;17.80;99.60
2260;DHT22;333;48.800;9.530;2023-09-19T01:46:24;17.70;99.60
2260;DHT22;333;48.800;9.530;2023-09-19T01:49:00;17.80;99.60
2260;DHT22;333;48.800;9.530;2023-09-19T01:51:34;17.80;99.60
2260;DHT22;333;48.800;9.530;2023-09-19T01:54:08;17.70;99.60
2260;DHT22;333;48.800;9.530;2023-09-19T01:56:40;17.70;99.60
2260;DHT22;333;48.800;9.530;2023-09-19T01:59:13;17.80;99.60
2260;DHT22;333;48.800;9.530;2023-09-19T02:01:42;17.80;99.60
2260;DHT22;333;48.800;9.530;2023-09-19T02:04:11;17.80;99.60
2260;DHT22;333;48.800;9.530;2023-09-19T02:06:39;17.70;99.60
2260;DHT22;333;48.800;9.530;2023-09-19T02:09:06;17.70;99.60
2260;DHT22;333;48.800;9.530;2023-09-19T02:11:34;17.80;99.60
2260;DHT22;333;48.800;9.530;2023-09-19T02:14:02;17.70;99.60
2260;DHT22;333;48.800;9.530;2023-09-19T02:16:30;17.70;99.60
2260;DHT22;333;48.800;9.530;2023-09-19T02:18:58;17.80;99.60
2260;DHT22;333;48.800;9.530;2023-09-19T02:21:26;17.80;99.60
2260;DHT22;333;48.800;9.530;2023-09-19T02:23:55;17.80;99.60
2260;DHT22;333;48.800;9.530;2023-09-19T02:26:21;17.80;99.60
2260;DHT22;333;48.800;9.530;2023-09-19T02:28:49;17.80;99.60
2260;DHT22;333;48.800;9.530;2023-09-19T02:31:15;17.80;99.60
2260;DHT22;333;48.800;9.530;2023-09-19T02:33:43;17.80;99.60
2260;DHT22;333;48.800;9.530;2023-09-19T02:36:13;17.80;99.60
2260;DHT22;333;48.800;9.530;2023-09-19T02:38:42;17.80;99.60
2260;DHT22;333;48.800;9.530;2023-09-19T02:41:09;17.70;99.60
2260;DHT22;333;48.800;9.530;2023-09-19T02:43:37;17.70;99.60
2260;DHT22;333;48.800;9.530;2023-09-19T02:46:04;17.70;99.60
2260;DHT22;333;48.800;9.530;2023-09-19T02:48:31;17.70;99.60
2260;DHT22;333;48.800;9.530;2023-09-19T02:51:00;17.60;99.60
2260;DHT22;333;48.800;9.530;2023-09-19T02:53:28;17.50;99.60
2260;DHT22;333;48.800;9.530;2023-09-19T02:55:56;17.50;99.60
2260;DHT22;333;48.800;9.530;2023-09-19T02:58:24;17.40;99.60
2260;DHT22;333;48.800;9.530;2023-09-19T03:00:53;17.30;99.60
2260;DHT22;333;48.800;9.530;2023-09-19T03:03:20;17.30;99.60
2260;DHT22;333;48.800;9.530;2023-09-19T03:05:48;17.10;99.60
2260;DHT22;333;48.800;9.530;2023-09-19T03:08:17;17.00;99.60
2260;DHT22;333;48.800;9.530;2023-09-19T03:10:47;17.10;99.60
2260;DHT22;333;48.800;9.530;2023-09-19T03:13:14;17.00;99.60
2260;DHT22;333;48.800;9.530;2023-09-19T03:15:41;17.00;99.60
2260;DHT22;333;48.800;9.530;2023-09-19T03:18:12;17.00;99.60
2260;DHT22;333;48.800;9.530;2023-09-19T03:20:39;17.00;99.60
2260;DHT22;333;48.800;9.530;2023-09-19T03:23:06;16.80;99.60
2260;DHT22;333;48.800;9.530;2023-09-19T03:25:34;16.70;99.60
2260;DHT22;333;48.800;9.530;2023-09-19T03:28:03;16.70;99.60
2260;DHT22;333;48.800;9.530;2023-09-19T03:30:31;16.60;99.60
2260;DHT22;333;48.800;9.530;2023-09-19T03:32:59;16.50;99.60
2260;DHT22;333;48.800;9.530;2023-09-19T03:35:26;16.40;99.60
2260;DHT22;333;48.800;9.530;2023-09-19T03:37:53;16.60;99.60
2260;DHT22;333;48.800;9.530;2023-09-19T03:40:20;16.60;99.60
2260;DHT22;333;48.800;9.530;2023-09-19T03:42:47;16.70;99.60
2260;DHT22;333;48.800;9.530;2023-09-19T03:45:16;16.80;99.60
2260;DHT22;333;48.800;9.530;2023-09-19T03:47:44;16.90;99.60
2260;DHT22;333;48.800;9.530;2023-09-19T03:50:12;16.90;99.60
2260;DHT22;333;48.800;9.530;2023-09-19T03:52:41;16.90;99.60
2260;DHT22;333;48.800;9.530;2023-09-19T03:55:08;17.00;99.60
2260;DHT22;333;48.800;9.530;2023-09-19T03:57:35;17.00;99.60
2260;DHT22;333;48.800;9.530;2023-09-19T04:00:02;17.00;99.60
2260;DHT22;333;48.800;9.530;2023-09-19T04:02:32;17.00;99.60
2260;DHT22;333;48.800;9.530;2023-09-19T04:05:00;17.00;99.60
2260;DHT22;333;48.800;9.530;2023-09-19T04:07:27;17.10;99.60
2260;DHT22;333;48.800;9.530;2023-09-19T04:09:54;17.00;99.60
2260;DHT22;333;48.800;9.530;2023-09-19T04:12:21;16.90;99.60
2260;DHT22;333;48.800;9.530;2023-09-19T04:14:48;17.00;99.60
2260;DHT22;333;48.800;9.530;2023-09-19T04:17:15;17.10;99.60
2260;DHT22;333;48.800;9.530;2023-09-19T04:19:44;17.00;99.60
2260;DHT22;333;48.800;9.530;2023-09-19T04:22:11;17.10;99.60
2260;DHT22;333;48.800;9.530;2023-09-19T04:24:38;17.10;99.60
2260;DHT22;333;48.800;9.530;2023-09-19T04:27:05;17.10;99.60
2260;DHT22;333;48.800;9.530;2023-09-19T04:29:32;17.20;99.60
2260;DHT22;333;48.800;9.530;2023-09-19T04:32:00;17.20;99.60
2260;DHT22;333;48.800;9.530;2023-09-19T04:34:30;17.30;99.60
2260;DHT22;333;48.800;9.530;2023-09-19T04:36:58;17.30;99.60
2260;DHT22;333;48.800;9.530;2023-09-19T04:39:26;17.40;99.60
2260;DHT22;333;48.800;9.530;2023-09-19T04:41:53;17.40;99.60
2260;DHT22;333;48.800;9.530;2023-09-19T04:44:20;17.30;99.60
2260;DHT22;333;48.800;9.530;2023-09-19T04:46:47;17.30;99.60
2260;DHT22;333;48.800;9.530;2023-09-19T04:49:14;17.30;99.60
2260;DHT22;333;48.800;9.530;2023-09-19T04:51:41;17.30;99.60
2260;DHT22;333;48.800;9.530;2023-09-19T04:54:09;17.30;99.60
2260;DHT22;333;48.800;9.530;2023-09-19T04:56:36;17.30;99.60
2260;DHT22;333;48.800;9.530;2023-09-19T04:59:06;17.40;99.60
2260;DHT22;333;48.800;9.530;2023-09-19T05:01:33;17.30;99.60
2260;DHT22;333;48.800;9.530;2023-09-19T05:04:00;17.30;99.60
2260;DHT22;333;48.800;9.530;2023-09-19T05:06:26;17.30;99.60
2260;DHT22;333;48.800;9.530;2023-09-19T05:08:53;17.30;99.60
2260;DHT22;333;48.800;9.530;2023-09-19T05:11:22;17.40;99.60
2260;DHT22;333;48.800;9.530;2023-09-19T05:13:50;17.40;99.60
2260;DHT22;333;48.800;9.530;2023-09-19T05:16:18;17.40;99.60
2260;DHT22;333;48.800;9.530;2023-09-19T05:18:45;17.50;99.60
2260;DHT22;333;48.800;9.530;2023-09-19T05:21:11;17.50;99.60
2260;DHT22;333;48.800;9.530;2023-09-19T05:23:38;17.40;99.60
2260;DHT22;333;48.800;9.530;2023-09-19T05:26:06;17.40;99.60
2260;DHT22;333;48.800;9.530;2023-09-19T05:28:34;17.50;99.60
2260;DHT22;333;48.800;9.530;2023-09-19T05:31:03;17.50;99.60
2260;DHT22;333;48.800;9.530;2023-09-19T05:33:30;17.40;99.60
2260;DHT22;333;48.800;9.530;2023-09-19T05:35:58;17.40;99.60
2260;DHT22;333;48.800;9.530;2023-09-19T05:38:25;17.20;99.60
2260;DHT22;333;48.800;9.530;2023-09-19T05:40:53;17.10;99.60
2260;DHT22;333;48.800;9.530;2023-09-19T05:43:19;17.00;99.60
2260;DHT22;333;48.800;9.530;2023-09-19T05:45:48;16.90;99.60
2260;DHT22;333;48.800;9.530;2023-09-19T05:48:17;16.80;99.60
2260;DHT22;333;48.800;9.530;2023-09-19T05:50:46;16.70;99.60
2260;DHT22;333;48.800;9.530;2023-09-19T05:53:14;16.70;99.60
2260;DHT22;333;48.800;9.530;2023-09-19T05:55:43;16.70;99.60
2260;DHT22;333;48.800;9.530;2023-09-19T05:58:11;16.70;99.60
2260;DHT22;333;48.800;9.530;2023-09-19T06:00:39;16.70;99.60
2260;DHT22;333;48.800;9.530;2023-09-19T06:03:09;16.60;99.60
2260;DHT22;333;48.800;9.530;2023-09-19T06:05:37;16.60;99.60
2260;DHT22;333;48.800;9.530;2023-09-19T06:08:06;16.60;99.60
2260;DHT22;333;48.800;9.530;2023-09-19T06:10:34;16.60;99.60
2260;DHT22;333;48.800;9.530;2023-09-19T06:13:02;16.60;99.60
2260;DHT22;333;48.800;9.530;2023-09-19T06:15:30;16.60;99.60
2260;DHT22;333;48.800;9.530;2023-09-19T06:17:59;16.50;99.60
2260;DHT22;333;48.800;9.530;2023-09-19T06:20:29;16.40;99.60
2260;DHT22;333;48.800;9.530;2023-09-19T06:22:58;16.30;99.60
2260;DHT22;333;48.800;9.530;2023-09-19T06:25:27;16.00;99.60
2260;DHT22;333;48.800;9.530;2023-09-19T06:27:54;15.80;99.60
2260;DHT22;333;48.800;9.530;2023-09-19T06:30:22;15.70;99.60
2260;DHT22;333;48.800;9.530;2023-09-19T06:32:55;15.60;99.60
2260;DHT22;333;48.800;9.530;2023-09-19T06:35:22;15.60;99.60
2260;DHT22;333;48.800;9.530;2023-09-19T06:37:53;15.50;99.60
2260;DHT22;333;48.800;9.530;2023-09-19T06:40:20;15.50;99.60
2260;DHT22;333;48.800;9.530;2023-09-19T06:42:50;15.40;99.60
2260;DHT22;333;48.800;9.530;2023-09-19T06:45:18;15.30;99.60
2260;DHT22;333;48.800;9.530;2023-09-19T06:47:45;15.20;99.60
2260;DHT22;333;48.800;9.530;2023-09-19T06:50:15;15.20;99.60
2260;DHT22;333;48.800;9.530;2023-09-19T06:52:44;15.10;99.60
2260;DHT22;333;48.800;9.530;2023-09-19T06:55:15;15.20;99.60
2260;DHT22;333;48.800;9.530;2023-09-19T06:57:42;15.20;99.60
2260;DHT22;333;48.800;9.530;2023-09-19T07:00:09;15.20;99.60
2260;DHT22;333;48.800;9.530;2023-09-19T07:02:41;15.30;99.60
2260;DHT22;333;48.800;9.530;2023-09-19T07:05:08;15.30;99.60
2260;DHT22;333;48.800;9.530;2023-09-19T07:07:36;15.40;99.60
2260;DHT22;333;48.800;9.530;2023-09-19T07:10:03;15.50;99.60
2260;DHT22;333;48.800;9.530;2023-09-19T07:12:32;15.60;99.60
2260;DHT22;333;48.800;9.530;2023-09-19T07:14:59;15.80;99.60
2260;DHT22;333;48.800;9.530;2023-09-19T07:17:26;15.80;99.60
2260;DHT22;333;48.800;9.530;2023-09-19T07:19:53;15.80;99.60
2260;DHT22;333;48.800;9.530;2023-09-19T07:22:20;16.00;99.60
2260;DHT22;333;48.800;9.530;2023-09-19T07:24:49;16.20;99.60
2260;DHT22;333;48.800;9.530;2023-09-19T07:27:16;16.40;99.60
2260;DHT22;333;48.800;9.530;2023-09-19T07:29:44;16.40;99.60
2260;DHT22;333;48.800;9.530;2023-09-19T07:32:11;16.60;99.60
2260;DHT22;333;48.800;9.530;2023-09-19T07:34:39;16.70;99.60
2260;DHT22;333;48.800;9.530;2023-09-19T07:37:06;16.70;99.60
2260;DHT22;333;48.800;9.530;2023-09-19T07:39:33;16.80;99.60
2260;DHT22;333;48.800;9.530;2023-09-19T07:42:00;16.90;99.60
2260;DHT22;333;48.800;9.530;2023-09-19T07:44:27;16.80;99.60
2260;DHT22;333;48.800;9.530;2023-09-19T07:46:55;16.70;99.60
2260;DHT22;333;48.800;9.530;2023-09-19T07:49:22;16.90;99.60
2260;DHT22;333;48.800;9.530;2023-09-19T07:51:49;16.90;99.60
2260;DHT22;333;48.800;9.530;2023-09-19T07:54:18;17.10;99.60
2260;DHT22;333;48.800;9.530;2023-09-19T07:56:45;17.10;99.60
2260;DHT22;333;48.800;9.530;2023-09-19T07:59:12;17.10;99.60
2260;DHT22;333;48.800;9.530;2023-09-19T08:01:39;17.10;99.60
2260;DHT22;333;48.800;9.530;2023-09-19T08:04:08;17.10;99.60
2260;DHT22;333;48.800;9.530;2023-09-19T08:06:35;17.20;99.60
2260;DHT22;333;48.800;9.530;2023-09-19T08:09:03;17.30;99.60
2260;DHT22;333;48.800;9.530;2023-09-19T08:11:33;17.30;99.60
2260;DHT22;333;48.800;9.530;2023-09-19T08:14:00;17.30;99.60
2260;DHT22;333;48.800;9.530;2023-09-19T08:16:27;17.20;99.60
2260;DHT22;333;48.800;9.530;2023-09-19T08:18:54;17.30;99.60
2260;DHT22;333;48.800;9.530;2023-09-19T08:21:22;17.40;99.60
2260;DHT22;333;48.800;9.530;2023-09-19T08:23:49;17.30;99.60
2260;DHT22;333;48.800;9.530;2023-09-19T08:26:16;17.40;99.60
2260;DHT22;333;48.800;9.530;2023-09-19T08:28:43;17.50;99.60
2260;DHT22;333;48.800;9.530;2023-09-19T08:31:10;17.60;99.60
2260;DHT22;333;48.800;9.530;2023-09-19T08:33:37;17.60;99.60
2260;DHT22;333;48.800;9.530;2023-09-19T08:36:06;17.70;99.60
2260;DHT22;333;48.800;9.530;2023-09-19T08:38:36;17.80;99.60
2260;DHT22;333;48.800;9.530;2023-09-19T08:41:06;17.80;99.60
2260;DHT22;333;48.800;9.530;2023-09-19T08:43:33;17.90;99.60
2260;DHT22;333;48.800;9.530;2023-09-19T08:46:09;18.00;99.60
2260;DHT22;333;48.800;9.530;2023-09-19T08:48:39;18.10;99.60
2260;DHT22;333;48.800;9.530;2023-09-19T08:51:16;18.20;99.60
2260;DHT22;333;48.800;9.530;2023-09-19T08:53:51;18.20;99.60
2260;DHT22;333;48.800;9.530;2023-09-19T08:56:18;18.40;99.60
2260;DHT22;333;48.800;9.530;2023-09-19T08:58:51;18.70;99.60
2260;DHT22;333;48.800;9.530;2023-09-19T09:01:19;18.90;99.60
2260;DHT22;333;48.800;9.530;2023-09-19T09:03:51;19.00;99.60
2260;DHT22;333;48.800;9.530;2023-09-19T09:06:20;19.00;99.60
2260;DHT22;333;48.800;9.530;2023-09-19T09:08:48;18.90;99.60
2260;DHT22;333;48.800;9.530;2023-09-19T09:11:16;18.80;99.60
2260;DHT22;333;48.800;9.530;2023-09-19T09:13:44;18.90;99.60
2260;DHT22;333;48.800;9.530;2023-09-19T09:16:11;18.90;99.60
2260;DHT22;333;48.800;9.530;2023-09-19T09:18:39;18.90;99.60
2260;DHT22;333;48.800;9.530;2023-09-19T09:21:06;18.90;99.60
2260;DHT22;333;48.800;9.530;2023-09-19T09:23:33;18.90;99.60
2260;DHT22;333;48.800;9.530;2023-09-19T09:26:01;18.90;99.60
2260;DHT22;333;48.800;9.530;2023-09-19T09:28:32;19.00;99.60
2260;DHT22;333;48.800;9.530;2023-09-19T09:31:01;19.10;99.60
2260;DHT22;333;48.800;9.530;2023-09-19T09:33:33;19.30;99.60
2260;DHT22;333;48.800;9.530;2023-09-19T09:36:02;19.60;99.60
2260;DHT22;333;48.800;9.530;2023-09-19T09:38:43;19.80;99.60
2260;DHT22;333;48.800;9.530;2023-09-19T09:41:12;20.00;99.60
2260;DHT22;333;48.800;9.530;2023-09-19T09:43:52;20.10;99.60
2260;DHT22;333;48.800;9.530;2023-09-19T09:46:20;20.40;99.60
2260;DHT22;333;48.800;9.530;2023-09-19T09:49:05;20.30;99.60
2260;DHT22;333;48.800;9.530;2023-09-19T09:51:42;20.10;99.60
2260;DHT22;333;48.800;9.530;2023-09-19T09:54:13;20.00;99.60
2260;DHT22;333;48.800;9.530;2023-09-19T09:56:59;20.10;99.60
2260;DHT22;333;48.800;9.530;2023-09-19T09:59:46;20.20;99.60
2260;DHT22;333;48.800;9.530;2023-09-19T10:02:13;20.30;99.60
2260;DHT22;333;48.800;9.530;2023-09-19T10:04:48;20.30;99.60
2260;DHT22;333;48.800;9.530;2023-09-19T10:07:34;20.30;99.60
2260;DHT22;333;48.800;9.530;2023-09-19T10:10:04;20.10;99.60
2260;DHT22;333;48.800;9.530;2023-09-19T10:12:44;20.10;99.60
2260;DHT22;333;48.800;9.530;2023-09-19T10:15:15;20.10;99.60
2260;DHT22;333;48.800;9.530;2023-09-19T10:17:44;20.00;99.60
2260;DHT22;333;48.800;9.530;2023-09-19T10:20:16;20.20;99.60
2260;DHT22;333;48.800;9.530;2023-09-19T10:23:05;20.30;99.60
2260;DHT22;333;48.800;9.530;2023-09-19T10:25:37;20.60;99.60
2260;DHT22;333;48.800;9.530;2023-09-19T10:28:08;20.70;99.60
2260;DHT22;333;48.800;9.530;2023-09-19T10:30:37;20.70;99.60
2260;DHT22;333;48.800;9.530;2023-09-19T10:33:09;20.90;99.60
2260;DHT22;333;48.800;9.530;2023-09-19T10:35:38;21.20;99.60
2260;DHT22;333;48.800;9.530;2023-09-19T10:38:07;21.30;99.60
2260;DHT22;333;48.800;9.530;2023-09-19T10:40:37;21.40;99.60
2260;DHT22;333;48.800;9.530;2023-09-19T10:43:12;21.40;99.60
2260;DHT22;333;48.800;9.530;2023-09-19T10:45:40;21.30;99.60
2260;DHT22;333;48.800;9.530;2023-09-19T10:48:07;21.40;99.60
2260;DHT22;333;48.800;9.530;2023-09-19T10:50:41;21.50;99.60
2260;DHT22;333;48.800;9.530;2023-09-19T10:53:11;21.70;99.60
2260;DHT22;333;48.800;9.530;2023-09-19T10:55:39;21.40;99.60
2260;DHT22;333;48.800;9.530;2023-09-19T10:58:06;21.20;99.60
2260;DHT22;333;48.800;9.530;2023-09-19T11:00:55;21.20;99.60
2260;DHT22;333;48.800;9.530;2023-09-19T11:03:23;21.40;99.60
2260;DHT22;333;48.800;9.530;2023-09-19T11:06:03;21.10;99.60
2260;DHT22;333;48.800;9.530;2023-09-19T11:08:57;21.20;99.60
2260;DHT22;333;48.800;9.530;2023-09-19T11:11:46;21.30;99.60
2260;DHT22;333;48.800;9.530;2023-09-19T11:14:40;21.40;99.60
2260;DHT22;333;48.800;9.530;2023-09-19T11:17:42;21.50;99.60
2260;DHT22;333;48.800;9.530;2023-09-19T11:20:22;21.60;99.60
2260;DHT22;333;48.800;9.530;2023-09-19T11:23:23;21.80;99.60
2260;DHT22;333;48.800;9.530;2023-09-19T11:25:53;21.80;99.60
2260;DHT22;333;48.800;9.530;2023-09-19T11:28:30;22.20;99.60
2260;DHT22;333;48.800;9.530;2023-09-19T11:30:58;22.70;98.40
2260;DHT22;333;48.800;9.530;2023-09-19T11:33:27;22.60;97.80
2260;DHT22;333;48.800;9.530;2023-09-19T11:36:00;22.30;99.60
2260;DHT22;333;48.800;9.530;2023-09-19T11:38:57;21.90;99.50
2260;DHT22;333;48.800;9.530;2023-09-19T11:41:39;21.90;99.50
2260;DHT22;333;48.800;9.530;2023-09-19T11:44:33;22.10;98.50
2260;DHT22;333;48.800;9.530;2023-09-19T11:47:05;22.50;98.40
2260;DHT22;333;48.800;9.530;2023-09-19T11:49:34;22.40;97.00
2260;DHT22;333;48.800;9.530;2023-09-19T11:52:03;22.20;97.40
2260;DHT22;333;48.800;9.530;2023-09-19T11:54:32;22.30;97.60
2260;DHT22;333;48.800;9.530;2023-09-19T11:57:00;22.40;96.90
2260;DHT22;333;48.800;9.530;2023-09-19T11:59:29;22.40;94.50
2260;DHT22;333;48.800;9.530;2023-09-19T12:01:57;22.40;94.70
2260;DHT22;333;48.800;9.530;2023-09-19T12:04:35;22.30;95.90
2260;DHT22;333;48.800;9.530;2023-09-19T12:07:05;21.90;97.20
2260;DHT22;333;48.800;9.530;2023-09-19T12:09:39;21.90;97.90
2260;DHT22;333;48.800;9.530;2023-09-19T12:12:10;22.00;97.20
2260;DHT22;333;48.800;9.530;2023-09-19T12:14:41;22.40;95.30
2260;DHT22;333;48.800;9.530;2023-09-19T12:17:09;22.20;95.60
2260;DHT22;333;48.800;9.530;2023-09-19T12:19:37;22.00;98.00
2260;DHT22;333;48.800;9.530;2023-09-19T12:22:04;21.90;96.80
2260;DHT22;333;48.800;9.530;2023-09-19T12:24:32;22.00;96.50
2260;DHT22;333;48.800;9.530;2023-09-19T12:27:02;22.40;95.60
2260;DHT22;333;48.800;9.530;2023-09-19T12:29:31;22.90;94.80
2260;DHT22;333;48.800;9.530;2023-09-19T12:32:00;23.10;94.60
2260;DHT22;333;48.800;9.530;2023-09-19T12:34:30;23.50;92.80
2260;DHT22;333;48.800;9.530;2023-09-19T12:37:09;23.70;91.50
2260;DHT22;333;48.800;9.530;2023-09-19T12:39:42;23.50;92.70
2260;DHT22;333;48.800;9.530;2023-09-19T12:42:15;23.40;92.70
2260;DHT22;333;48.800;9.530;2023-09-19T12:44:43;22.90;94.20
2260;DHT22;333;48.800;9.530;2023-09-19T12:47:15;22.70;95.80
2260;DHT22;333;48.800;9.530;2023-09-19T12:50:07;23.10;93.90
2260;DHT22;333;48.800;9.530;2023-09-19T12:52:41;23.50;92.30
2260;DHT22;333;48.800;9.530;2023-09-19T12:55:19;24.00;92.20
2260;DHT22;333;48.800;9.530;2023-09-19T12:57:56;24.50;90.70
2260;DHT22;333;48.800;9.530;2023-09-19T13:00:35;24.60;90.70
2260;DHT22;333;48.800;9.530;2023-09-19T13:03:13;24.80;90.10
2260;DHT22;333;48.800;9.530;2023-09-19T13:05:52;24.90;89.20
2260;DHT22;333;48.800;9.530;2023-09-19T13:08:24;25.00;87.90
2260;DHT22;333;48.800;9.530;2023-09-19T13:11:05;24.60;90.50
2260;DHT22;333;48.800;9.530;2023-09-19T13:13:35;24.50;90.20
2260;DHT22;333;48.800;9.530;2023-09-19T13:16:03;24.20;91.90
2260;DHT22;333;48.800;9.530;2023-09-19T13:18:42;24.20;92.40
2260;DHT22;333;48.800;9.530;2023-09-19T13:21:11;24.30;92.30
2260;DHT22;333;48.800;9.530;2023-09-19T13:23:42;23.90;92.10
2260;DHT22;333;48.800;9.530;2023-09-19T13:26:10;23.80;92.40
2260;DHT22;333;48.800;9.530;2023-09-19T13:28:38;23.90;90.90
2260;DHT22;333;48.800;9.530;2023-09-19T13:31:05;24.10;91.40
2260;DHT22;333;48.800;9.530;2023-09-19T13:33:34;24.60;89.70
2260;DHT22;333;48.800;9.530;2023-09-19T13:36:01;25.20;89.30
2260;DHT22;333;48.800;9.530;2023-09-19T13:38:28;25.40;87.90
2260;DHT22;333;48.800;9.530;2023-09-19T13:40:56;24.80;89.10
2260;DHT22;333;48.800;9.530;2023-09-19T13:43:24;24.50;90.00
2260;DHT22;333;48.800;9.530;2023-09-19T13:45:51;24.40;91.00
2260;DHT22;333;48.800;9.530;2023-09-19T13:48:18;24.80;90.30
2260;DHT22;333;48.800;9.530;2023-09-19T13:50:48;24.90;87.90
2260;DHT22;333;48.800;9.530;2023-09-19T13:53:15;24.20;88.90
2260;DHT22;333;48.800;9.530;2023-09-19T13:55:43;23.70;91.40
2260;DHT22;333;48.800;9.530;2023-09-19T13:58:11;23.30;92.70
2260;DHT22;333;48.800;9.530;2023-09-19T14:00:38;23.70;92.30
2260;DHT22;333;48.800;9.530;2023-09-19T14:03:05;24.00;91.10
2260;DHT22;333;48.800;9.530;2023-09-19T14:05:32;23.90;91.90
2260;DHT22;333;48.800;9.530;2023-09-19T14:07:59;23.60;91.50
2260;DHT22;333;48.800;9.530;2023-09-19T14:10:26;23.60;91.70
2260;DHT22;333;48.800;9.530;2023-09-19T14:12:55;23.80;90.60
2260;DHT22;333;48.800;9.530;2023-09-19T14:15:25;24.20;89.60
2260;DHT22;333;48.800;9.530;2023-09-19T14:17:56;24.70;88.40
2260;DHT22;333;48.800;9.530;2023-09-19T14:20:23;25.20;86.90
2260;DHT22;333;48.800;9.530;2023-09-19T14:22:49;25.60;87.20
2260;DHT22;333;48.800;9.530;2023-09-19T14:25:17;25.90;85.20
2260;DHT22;333;48.800;9.530;2023-09-19T14:27:44;26.00;84.60
2260;DHT22;333;48.800;9.530;2023-09-19T14:30:12;25.90;84.20
2260;DHT22;333;48.800;9.530;2023-09-19T14:32:41;25.70;86.20
2260;DHT22;333;48.800;9.530;2023-09-19T14:35:08;25.70;87.40
2260;DHT22;333;48.800;9.530;2023-09-19T14:37:36;25.70;86.80
2260;DHT22;333;48.800;9.530;2023-09-19T14:40:06;25.20;86.20
2260;DHT22;333;48.800;9.530;2023-09-19T14:42:35;25.00;86.20
2260;DHT22;333;48.800;9.530;2023-09-19T14:45:04;24.70;87.50
2260;DHT22;333;48.800;9.530;2023-09-19T14:47:32;24.50;88.00
2260;DHT22;333;48.800;9.530;2023-09-19T14:50:02;24.50;88.60
2260;DHT22;333;48.800;9.530;2023-09-19T14:52:35;24.60;87.90
2260;DHT22;333;48.800;9.530;2023-09-19T14:55:02;24.30;88.60
2260;DHT22;333;48.800;9.530;2023-09-19T14:57:30;24.10;90.20
2260;DHT22;333;48.800;9.530;2023-09-19T14:59:57;24.20;89.50
2260;DHT22;333;48.800;9.530;2023-09-19T15:02:24;24.50;90.00
2260;DHT22;333;48.800;9.530;2023-09-19T15:04:52;24.60;88.20
2260;DHT22;333;48.800;9.530;2023-09-19T15:07:20;24.60;87.90
2260;DHT22;333;48.800;9.530;2023-09-19T15:09:47;24.90;87.20
2260;DHT22;333;48.800;9.530;2023-09-19T15:12:14;25.40;86.60
2260;DHT22;333;48.800;9.530;2023-09-19T15:14:42;26.10;84.80
2260;DHT22;333;48.800;9.530;2023-09-19T15:17:09;26.10;83.30
2260;DHT22;333;48.800;9.530;2023-09-19T15:19:36;25.60;84.10
2260;DHT22;333;48.800;9.530;2023-09-19T15:22:04;25.30;85.10
2260;DHT22;333;48.800;9.530;2023-09-19T15:24:33;25.40;84.90
2260;DHT22;333;48.800;9.530;2023-09-19T15:27:00;25.30;85.20
2260;DHT22;333;48.800;9.530;2023-09-19T15:29:27;25.00;85.30
2260;DHT22;333;48.800;9.530;2023-09-19T15:31:55;24.70;86.30
2260;DHT22;333;48.800;9.530;2023-09-19T15:34:27;24.40;87.40
2260;DHT22;333;48.800;9.530;2023-09-19T15:36:54;24.40;87.30
2260;DHT22;333;48.800;9.530;2023-09-19T15:39:21;24.60;87.30
2260;DHT22;333;48.800;9.530;2023-09-19T15:41:50;25.00;86.10
2260;DHT22;333;48.800;9.530;2023-09-19T15:44:18;25.00;86.20
2260;DHT22;333;48.800;9.530;2023-09-19T15:46:46;24.80;86.40
2260;DHT22;333;48.800;9.530;2023-09-19T15:49:14;24.60;87.90
2260;DHT22;333;48.800;9.530;2023-09-19T15:51:41;24.30;88.10
2260;DHT22;333;48.800;9.530;2023-09-19T15:54:11;24.50;88.10
2260;DHT22;333;48.800;9.530;2023-09-19T15:56:40;24.80;86.70
2260;DHT22;333;48.800;9.530;2023-09-19T15:59:13;25.00;86.80
2260;DHT22;333;48.800;9.530;2023-09-19T16:01:41;25.40;86.30
2260;DHT22;333;48.800;9.530;2023-09-19T16:04:08;25.60;86.50
2260;DHT22;333;48.800;9.530;2023-09-19T16:06:36;25.60;83.90
2260;DHT22;333;48.800;9.530;2023-09-19T16:09:04;25.20;85.20
2260;DHT22;333;48.800;9.530;2023-09-19T16:11:33;24.50;86.70
2260;DHT22;333;48.800;9.530;2023-09-19T16:14:01;23.90;88.10
2260;DHT22;333;48.800;9.530;2023-09-19T16:16:29;23.80;89.10
2260;DHT22;333;48.800;9.530;2023-09-19T16:18:58;23.80;89.30
2260;DHT22;333;48.800;9.530;2023-09-19T16:21:27;24.00;89.00
2260;DHT22;333;48.800;9.530;2023-09-19T16:23:55;24.50;88.80
2260;DHT22;333;48.800;9.530;2023-09-19T16:26:24;24.80;86.70
2260;DHT22;333;48.800;9.530;2023-09-19T16:28:52;24.80;87.30
2260;DHT22;333;48.800;9.530;2023-09-19T16:31:20;24.80;86.20
2260;DHT22;333;48.800;9.530;2023-09-19T16:33:48;24.40;87.60
2260;DHT22;333;48.800;9.530;2023-09-19T16:36:16;24.10;89.10